^^
Station Historical Data
Daily Summary for March 9, 2018 Units:  English    Metric   Both
« Previous Day
Next Day »
Daily Weekly Monthly Yearly Custom
  High: Low: Average:
Temperature: TemperatureF °F 44.1 °F 55.4 °F
Dew Point: DewpointF °F 14.3 °F 30.1 °F
Humidity: Humidity% 12% 45%
Wind Speed: WindSpeedMPHmph 0.0mph 0mph
Wind Gust: WindSpeedGustMPHmph - -
Wind- - North
Pressure: PressureIn in 30.11 in -
Precipitation: 0.00 in    
Historical Graphs
 
 
Tabular Data for March 9, 2018
Time Temperature Dew Point Pressure Wind Wind Speed Wind Gust Humidity Rainfall Rate (Hourly) solar Conditions
TemperatureF °F DewpointF °F PressureIn in Calm     Humidity% HourlyPrecipIn in SolarRadiationWatts/m^2 W/m2 Conditions
00:02 50.0 °F 37.9 °F 30.13 in Calm     63% 0.00 in 0.0 W/m2 CLR
00:07 50.0 °F 37.9 °F 30.13 in Calm     63% 0.00 in 0.0 W/m2 CLR
00:12 50.0 °F 37.9 °F 30.13 in Calm     63% 0.00 in 0.0 W/m2 CLR
00:17 50.0 °F 37.9 °F 30.13 in Calm     63% 0.00 in 0.0 W/m2 CLR
00:22 50.0 °F 37.9 °F 30.13 in Calm     63% 0.00 in 0.0 W/m2 CLR
00:27 50.0 °F 37.9 °F 30.13 in Calm     63% 0.00 in 0.0 W/m2 CLR
00:32 50.0 °F 37.9 °F 30.13 in Calm     63% 0.00 in 0.0 W/m2 CLR
00:37 50.0 °F 37.9 °F 30.13 in Calm     63% 0.00 in 0.0 W/m2 CLR
00:42 50.0 °F 37.9 °F 30.13 in Calm     63% 0.00 in 0.0 W/m2 CLR
00:47 50.0 °F 37.9 °F 30.13 in Calm     63% 0.00 in 0.0 W/m2 CLR
00:52 50.0 °F 37.9 °F 30.13 in Calm     63% 0.00 in 0.0 W/m2 CLR
00:57 50.0 °F 37.9 °F 30.13 in Calm     63% 0.00 in 0.0 W/m2 CLR
01:02 48.9 °F 38.8 °F 30.12 in Calm     68% 0.00 in 0.0 W/m2 CLR
01:07 48.9 °F 38.8 °F 30.12 in Calm     68% 0.00 in 0.0 W/m2 CLR
01:12 48.9 °F 38.8 °F 30.12 in Calm     68% 0.00 in 0.0 W/m2 CLR
01:17 48.9 °F 38.8 °F 30.12 in Calm     68% 0.00 in 0.0 W/m2 CLR
01:24 48.9 °F 38.8 °F 30.12 in Calm     68% 0.00 in 0.0 W/m2 CLR
01:29 48.9 °F 38.8 °F 30.12 in Calm     68% 0.00 in 0.0 W/m2 CLR
01:34 48.9 °F 38.8 °F 30.12 in Calm     68% 0.00 in 0.0 W/m2 CLR
01:39 48.9 °F 38.8 °F 30.12 in Calm     68% 0.00 in 0.0 W/m2 CLR
01:44 48.9 °F 38.8 °F 30.12 in Calm     68% 0.00 in 0.0 W/m2 CLR
01:49 48.9 °F 38.8 °F 30.12 in Calm     68% 0.00 in 0.0 W/m2 CLR
01:54 48.9 °F 38.8 °F 30.12 in Calm     68% 0.00 in 0.0 W/m2 CLR
01:59 48.9 °F 38.8 °F 30.12 in Calm     68% 0.00 in 0.0 W/m2 CLR
02:04 48.0 °F 38.7 °F 30.12 in Calm     70% 0.00 in 0.0 W/m2 CLR
02:09 48.0 °F 38.7 °F 30.12 in Calm     70% 0.00 in 0.0 W/m2 CLR
02:14 48.0 °F 38.7 °F 30.12 in Calm     70% 0.00 in 0.0 W/m2 CLR
02:19 48.0 °F 38.7 °F 30.12 in Calm     70% 0.00 in 0.0 W/m2 CLR
02:24 48.0 °F 38.7 °F 30.12 in Calm     70% 0.00 in 0.0 W/m2 CLR
02:29 48.0 °F 38.7 °F 30.12 in Calm     70% 0.00 in 0.0 W/m2 CLR
02:34 48.0 °F 38.7 °F 30.12 in Calm     70% 0.00 in 0.0 W/m2 CLR
02:39 48.0 °F 38.7 °F 30.12 in Calm     70% 0.00 in 0.0 W/m2 CLR
02:44 48.0 °F 38.7 °F 30.12 in Calm     70% 0.00 in 0.0 W/m2 CLR
02:49 48.0 °F 38.7 °F 30.12 in Calm     70% 0.00 in 0.0 W/m2 CLR
02:54 48.0 °F 38.7 °F 30.12 in Calm     70% 0.00 in 0.0 W/m2 CLR
02:59 48.0 °F 38.7 °F 30.12 in Calm     70% 0.00 in 0.0 W/m2 CLR
03:04 48.0 °F 39.8 °F 30.12 in Calm     73% 0.00 in 0.0 W/m2 CLR
03:09 48.0 °F 39.8 °F 30.12 in Calm     73% 0.00 in 0.0 W/m2 CLR
03:14 48.0 °F 39.8 °F 30.12 in Calm     73% 0.00 in 0.0 W/m2 CLR
03:19 48.0 °F 39.8 °F 30.12 in Calm     73% 0.00 in 0.0 W/m2 CLR
03:24 48.0 °F 39.8 °F 30.12 in Calm     73% 0.00 in 0.0 W/m2 CLR
03:29 48.0 °F 39.8 °F 30.12 in Calm     73% 0.00 in 0.0 W/m2 CLR
03:34 48.0 °F 39.8 °F 30.12 in Calm     73% 0.00 in 0.0 W/m2 CLR
03:39 48.0 °F 39.8 °F 30.12 in Calm     73% 0.00 in 0.0 W/m2 CLR
03:44 48.0 °F 39.8 °F 30.12 in Calm     73% 0.00 in 0.0 W/m2 CLR
03:49 48.0 °F 39.8 °F 30.12 in Calm     73% 0.00 in 0.0 W/m2 CLR
03:54 48.0 °F 39.8 °F 30.12 in Calm     73% 0.00 in 0.0 W/m2 CLR
03:59 48.0 °F 39.8 °F 30.12 in Calm     73% 0.00 in 0.0 W/m2 CLR
04:04 46.9 °F 38.7 °F 30.13 in Calm     73% 0.00 in 0.0 W/m2 CLR
04:09 46.9 °F 38.7 °F 30.13 in Calm     73% 0.00 in 0.0 W/m2 CLR
04:14 46.9 °F 38.7 °F 30.13 in Calm     73% 0.00 in 0.0 W/m2 CLR
04:19 46.9 °F 38.7 °F 30.13 in Calm     73% 0.00 in 0.0 W/m2 CLR
04:24 46.9 °F 38.7 °F 30.13 in Calm     73% 0.00 in 0.0 W/m2 CLR
04:29 46.9 °F 38.7 °F 30.13 in Calm     73% 0.00 in 0.0 W/m2 CLR
04:34 46.9 °F 38.7 °F 30.13 in Calm     73% 0.00 in 0.0 W/m2 CLR
04:39 46.9 °F 38.7 °F 30.13 in Calm     73% 0.00 in 0.0 W/m2 CLR
04:44 46.9 °F 38.7 °F 30.13 in Calm     73% 0.00 in 0.0 W/m2 CLR
04:49 46.9 °F 38.7 °F 30.13 in Calm     73% 0.00 in 0.0 W/m2 CLR
04:54 46.9 °F 38.7 °F 30.13 in Calm     73% 0.00 in 0.0 W/m2 CLR
04:59 46.9 °F 38.7 °F 30.13 in Calm     73% 0.00 in 0.0 W/m2 CLR
05:04 44.1 °F 34.9 °F 30.14 in Calm     70% 0.00 in 0.0 W/m2 CLR
05:09 44.1 °F 34.9 °F 30.14 in Calm     70% 0.00 in 0.0 W/m2 CLR
05:14 44.1 °F 34.9 °F 30.14 in Calm     70% 0.00 in 0.0 W/m2 CLR
05:19 44.1 °F 34.9 °F 30.14 in Calm     70% 0.00 in 0.0 W/m2 CLR
05:24 44.1 °F 34.9 °F 30.14 in Calm     70% 0.00 in 0.0 W/m2 CLR
05:29 44.1 °F 34.9 °F 30.14 in Calm     70% 0.00 in 0.0 W/m2 CLR
05:34 44.1 °F 34.9 °F 30.14 in Calm     70% 0.00 in 0.0 W/m2 CLR
05:39 44.1 °F 34.9 °F 30.14 in Calm     70% 0.00 in 0.0 W/m2 CLR
05:44 44.1 °F 34.9 °F 30.14 in Calm     70% 0.00 in 0.0 W/m2 CLR
05:49 44.1 °F 34.9 °F 30.14 in Calm     70% 0.00 in 0.0 W/m2 CLR
05:54 44.1 °F 34.9 °F 30.14 in Calm     70% 0.00 in 0.0 W/m2 CLR
05:59 44.1 °F 34.9 °F 30.14 in Calm     70% 0.00 in 0.0 W/m2 CLR
06:04 44.1 °F 30.6 °F 30.16 in Calm     59% 0.00 in 0.0 W/m2 CLR
06:09 44.1 °F 30.6 °F 30.16 in Calm     59% 0.00 in 0.0 W/m2 CLR
06:14 44.1 °F 30.6 °F 30.16 in Calm     59% 0.00 in 0.0 W/m2 CLR
06:19 44.1 °F 30.6 °F 30.16 in Calm     59% 0.00 in 0.0 W/m2 CLR
06:24 44.1 °F 30.6 °F 30.16 in Calm     59% 0.00 in 0.0 W/m2 CLR
06:29 44.1 °F 30.6 °F 30.16 in Calm     59% 0.00 in 0.0 W/m2 CLR
06:34 44.1 °F 30.6 °F 30.16 in Calm     59% 0.00 in 0.0 W/m2 CLR
06:39 44.1 °F 30.6 °F 30.16 in Calm     59% 0.00 in 0.0 W/m2 CLR
06:44 44.1 °F 30.6 °F 30.16 in Calm     59% 0.00 in 0.0 W/m2 CLR
06:49 44.1 °F 30.6 °F 30.16 in Calm     59% 0.00 in 0.0 W/m2 CLR
06:54 44.1 °F 30.6 °F 30.16 in Calm     59% 0.00 in 0.0 W/m2 CLR
06:59 44.1 °F 30.6 °F 30.16 in Calm     59% 0.00 in 0.0 W/m2 CLR
07:04 44.1 °F 33.0 °F 30.17 in Calm     65% 0.00 in 0.0 W/m2 CLR
07:09 44.1 °F 33.0 °F 30.17 in Calm     65% 0.00 in 0.0 W/m2 CLR
07:14 44.1 °F 33.0 °F 30.17 in Calm     65% 0.00 in 0.0 W/m2 CLR
07:19 44.1 °F 33.0 °F 30.17 in Calm     65% 0.00 in 0.0 W/m2 CLR
07:24 44.1 °F 33.0 °F 30.17 in Calm     65% 0.00 in 0.0 W/m2 CLR
07:29 44.1 °F 33.0 °F 30.17 in Calm     65% 0.00 in 0.0 W/m2 CLR
07:34 44.1 °F 33.0 °F 30.17 in Calm     65% 0.00 in 0.0 W/m2 CLR
07:39 44.1 °F 33.0 °F 30.17 in Calm     65% 0.00 in 0.0 W/m2 CLR
07:44 44.1 °F 33.0 °F 30.17 in Calm     65% 0.00 in 0.0 W/m2 CLR
07:49 44.1 °F 33.0 °F 30.17 in Calm     65% 0.00 in 0.0 W/m2 CLR
07:54 44.1 °F 33.0 °F 30.17 in Calm     65% 0.00 in 0.0 W/m2 CLR
07:59 44.1 °F 33.0 °F 30.17 in Calm     65% 0.00 in 0.0 W/m2 CLR
08:04 50.0 °F 30.5 °F 30.19 in Calm     47% 0.00 in 0.0 W/m2 CLR
08:09 50.0 °F 30.5 °F 30.19 in Calm     47% 0.00 in 0.0 W/m2 CLR
08:14 50.0 °F 30.5 °F 30.19 in Calm     47% 0.00 in 0.0 W/m2 CLR
08:19 50.0 °F 30.5 °F 30.19 in Calm     47% 0.00 in 0.0 W/m2 CLR
08:24 50.0 °F 30.5 °F 30.19 in Calm     47% 0.00 in 0.0 W/m2 CLR
08:29 50.0 °F 30.5 °F 30.19 in Calm     47% 0.00 in 0.0 W/m2 CLR
08:34 50.0 °F 30.5 °F 30.19 in Calm     47% 0.00 in 0.0 W/m2 CLR
08:39 50.0 °F 30.5 °F 30.19 in Calm     47% 0.00 in 0.0 W/m2 CLR
08:44 50.0 °F 30.5 °F 30.19 in Calm     47% 0.00 in 0.0 W/m2 CLR
08:49 50.0 °F 30.5 °F 30.19 in Calm     47% 0.00 in 0.0 W/m2 CLR
08:54 50.0 °F 30.5 °F 30.19 in Calm     47% 0.00 in 0.0 W/m2 CLR
08:59 50.0 °F 30.5 °F 30.19 in Calm     47% 0.00 in 0.0 W/m2 CLR
09:04 54.0 °F 26.9 °F 30.19 in Calm     35% 0.00 in 0.0 W/m2 CLR
09:09 54.0 °F 26.9 °F 30.19 in Calm     35% 0.00 in 0.0 W/m2 CLR
09:14 54.0 °F 26.9 °F 30.19 in Calm     35% 0.00 in 0.0 W/m2 CLR
09:19 54.0 °F 26.9 °F 30.19 in Calm     35% 0.00 in 0.0 W/m2 CLR
09:24 54.0 °F 26.9 °F 30.19 in Calm     35% 0.00 in 0.0 W/m2 CLR
09:29 54.0 °F 26.9 °F 30.19 in Calm     35% 0.00 in 0.0 W/m2 CLR
09:34 54.0 °F 26.9 °F 30.19 in Calm     35% 0.00 in 0.0 W/m2 CLR
09:39 54.0 °F 26.9 °F 30.19 in Calm     35% 0.00 in 0.0 W/m2 CLR
09:44 54.0 °F 26.9 °F 30.19 in Calm     35% 0.00 in 0.0 W/m2 CLR
09:49 54.0 °F 26.9 °F 30.19 in Calm     35% 0.00 in 0.0 W/m2 CLR
09:54 54.0 °F 26.9 °F 30.19 in Calm     35% 0.00 in 0.0 W/m2 CLR
09:59 54.0 °F 26.9 °F 30.19 in Calm     35% 0.00 in 0.0 W/m2 CLR
10:04 57.9 °F 23.2 °F 30.21 in Calm     26% 0.00 in 0.0 W/m2 CLR
10:09 57.9 °F 23.2 °F 30.21 in Calm     26% 0.00 in 0.0 W/m2 CLR
10:14 57.9 °F 23.2 °F 30.21 in Calm     26% 0.00 in 0.0 W/m2 CLR
10:19 57.9 °F 23.2 °F 30.21 in Calm     26% 0.00 in 0.0 W/m2 CLR
10:24 57.9 °F 23.2 °F 30.21 in Calm     26% 0.00 in 0.0 W/m2 CLR
10:29 57.9 °F 23.2 °F 30.21 in Calm     26% 0.00 in 0.0 W/m2 CLR
10:34 57.9 °F 23.2 °F 30.21 in Calm     26% 0.00 in 0.0 W/m2 CLR
10:39 57.9 °F 23.2 °F 30.21 in Calm     26% 0.00 in 0.0 W/m2 CLR
10:44 57.9 °F 23.2 °F 30.21 in Calm     26% 0.00 in 0.0 W/m2 CLR
10:49 57.9 °F 23.2 °F 30.21 in Calm     26% 0.00 in 0.0 W/m2 CLR
10:54 57.9 °F 23.2 °F 30.21 in Calm     26% 0.00 in 0.0 W/m2 CLR
10:59 57.9 °F 23.2 °F 30.21 in Calm     26% 0.00 in 0.0 W/m2 CLR
11:04 60.1 °F 23.1 °F 30.21 in Calm     24% 0.00 in 0.0 W/m2 CLR
11:09 60.1 °F 23.1 °F 30.21 in Calm     24% 0.00 in 0.0 W/m2 CLR
11:14 60.1 °F 23.1 °F 30.21 in Calm     24% 0.00 in 0.0 W/m2 CLR
11:19 60.1 °F 23.1 °F 30.21 in Calm     24% 0.00 in 0.0 W/m2 CLR
11:24 60.1 °F 23.1 °F 30.21 in Calm     24% 0.00 in 0.0 W/m2 CLR
11:29 60.1 °F 23.1 °F 30.21 in Calm     24% 0.00 in 0.0 W/m2 CLR
11:34 60.1 °F 23.1 °F 30.21 in Calm     24% 0.00 in 0.0 W/m2 CLR
11:39 60.1 °F 23.1 °F 30.21 in Calm     24% 0.00 in 0.0 W/m2 CLR
11:44 60.1 °F 23.1 °F 30.21 in Calm     24% 0.00 in 0.0 W/m2 CLR
11:49 60.1 °F 23.1 °F 30.21 in Calm     24% 0.00 in 0.0 W/m2 CLR
11:54 60.1 °F 23.1 °F 30.21 in Calm     24% 0.00 in 0.0 W/m2 CLR
11:59 60.1 °F 23.1 °F 30.21 in Calm     24% 0.00 in 0.0 W/m2 CLR
12:04 62.1 °F 22.7 °F 30.19 in Calm     22% 0.00 in 0.0 W/m2 CLR
12:09 62.1 °F 22.7 °F 30.19 in Calm     22% 0.00 in 0.0 W/m2 CLR
12:14 62.1 °F 22.7 °F 30.19 in Calm     22% 0.00 in 0.0 W/m2 CLR
12:19 62.1 °F 22.7 °F 30.19 in Calm     22% 0.00 in 0.0 W/m2 CLR
12:24 62.1 °F 22.7 °F 30.19 in Calm     22% 0.00 in 0.0 W/m2 CLR
12:29 62.1 °F 22.7 °F 30.19 in Calm     22% 0.00 in 0.0 W/m2 CLR
12:34 62.1 °F 22.7 °F 30.19 in Calm     22% 0.00 in 0.0 W/m2 CLR
12:39 62.1 °F 22.7 °F 30.19 in Calm     22% 0.00 in 0.0 W/m2 CLR
12:44 62.1 °F 22.7 °F 30.19 in Calm     22% 0.00 in 0.0 W/m2 CLR
12:49 62.1 °F 22.7 °F 30.19 in Calm     22% 0.00 in 0.0 W/m2 CLR
12:54 62.1 °F 22.7 °F 30.19 in Calm     22% 0.00 in 0.0 W/m2 CLR
12:59 62.1 °F 22.7 °F 30.19 in Calm     22% 0.00 in 0.0 W/m2 CLR
13:04 64.9 °F 17.6 °F 30.16 in Calm     16% 0.00 in 0.0 W/m2 CLR
13:09 64.9 °F 17.6 °F 30.16 in Calm     16% 0.00 in 0.0 W/m2 CLR
13:14 64.9 °F 17.6 °F 30.16 in Calm     16% 0.00 in 0.0 W/m2 CLR
13:19 64.9 °F 17.6 °F 30.16 in Calm     16% 0.00 in 0.0 W/m2 CLR
13:24 64.9 °F 17.6 °F 30.16 in Calm     16% 0.00 in 0.0 W/m2 CLR
13:29 64.9 °F 17.6 °F 30.16 in Calm     16% 0.00 in 0.0 W/m2 CLR
13:34 64.9 °F 17.6 °F 30.16 in Calm     16% 0.00 in 0.0 W/m2 CLR
13:39 64.9 °F 17.6 °F 30.16 in Calm     16% 0.00 in 0.0 W/m2 CLR
13:44 64.9 °F 17.6 °F 30.16 in Calm     16% 0.00 in 0.0 W/m2 CLR
13:49 64.9 °F 17.6 °F 30.16 in Calm     16% 0.00 in 0.0 W/m2 CLR
13:54 64.9 °F 17.6 °F 30.16 in Calm     16% 0.00 in 0.0 W/m2 CLR
13:59 64.9 °F 17.6 °F 30.16 in Calm     16% 0.00 in 0.0 W/m2 CLR
14:04 66.0 °F 15.4 °F 30.13 in Calm     14% 0.00 in 0.0 W/m2 CLR
14:09 66.0 °F 15.4 °F 30.13 in Calm     14% 0.00 in 0.0 W/m2 CLR
14:14 66.0 °F 15.4 °F 30.13 in Calm     14% 0.00 in 0.0 W/m2 CLR
14:19 66.0 °F 15.4 °F 30.13 in Calm     14% 0.00 in 0.0 W/m2 CLR
14:24 66.0 °F 15.4 °F 30.13 in Calm     14% 0.00 in 0.0 W/m2 CLR
14:29 66.0 °F 15.4 °F 30.13 in Calm     14% 0.00 in 0.0 W/m2 CLR
14:34 66.0 °F 15.4 °F 30.13 in Calm     14% 0.00 in 0.0 W/m2 CLR
14:39 66.0 °F 15.4 °F 30.13 in Calm     14% 0.00 in 0.0 W/m2 CLR
14:44 66.0 °F 15.4 °F 30.13 in Calm     14% 0.00 in 0.0 W/m2 CLR
14:49 66.0 °F 15.4 °F 30.13 in Calm     14% 0.00 in 0.0 W/m2 CLR
14:54 66.0 °F 15.4 °F 30.13 in Calm     14% 0.00 in 0.0 W/m2 CLR
14:59 66.0 °F 15.4 °F 30.13 in Calm     14% 0.00 in 0.0 W/m2 CLR
15:04 69.1 °F 14.3 °F 30.12 in Calm     12% 0.00 in 0.0 W/m2 CLR
15:09 69.1 °F 14.3 °F 30.12 in Calm     12% 0.00 in 0.0 W/m2 CLR
15:14 69.1 °F 14.3 °F 30.12 in Calm     12% 0.00 in 0.0 W/m2 CLR
15:19 69.1 °F 14.3 °F 30.12 in Calm     12% 0.00 in 0.0 W/m2 CLR
15:24 69.1 °F 14.3 °F 30.12 in Calm     12% 0.00 in 0.0 W/m2 CLR
15:29 69.1 °F 14.3 °F 30.12 in Calm     12% 0.00 in 0.0 W/m2 CLR
15:34 69.1 °F 14.3 °F 30.12 in Calm     12% 0.00 in 0.0 W/m2 CLR
15:39 69.1 °F 14.3 °F 30.12 in Calm     12% 0.00 in 0.0 W/m2 CLR
15:44 69.1 °F 14.3 °F 30.12 in Calm     12% 0.00 in 0.0 W/m2 CLR
15:49 69.1 °F 14.3 °F 30.12 in Calm     12% 0.00 in 0.0 W/m2 CLR
15:54 69.1 °F 14.3 °F 30.12 in Calm     12% 0.00 in 0.0 W/m2 CLR
15:59 69.1 °F 14.3 °F 30.12 in Calm     12% 0.00 in 0.0 W/m2 CLR
16:04 70.0 °F 15.0 °F 30.11 in Calm     12% 0.00 in 0.0 W/m2 CLR
16:09 70.0 °F 15.0 °F 30.11 in Calm     12% 0.00 in 0.0 W/m2 CLR
16:14 70.0 °F 15.0 °F 30.11 in Calm     12% 0.00 in 0.0 W/m2 CLR
16:19 70.0 °F 15.0 °F 30.11 in Calm     12% 0.00 in 0.0 W/m2 CLR
16:24 70.0 °F 15.0 °F 30.11 in Calm     12% 0.00 in 0.0 W/m2 CLR
16:29 70.0 °F 15.0 °F 30.11 in Calm     12% 0.00 in 0.0 W/m2 CLR
16:34 70.0 °F 15.0 °F 30.11 in Calm     12% 0.00 in 0.0 W/m2 CLR
16:39 70.0 °F 15.0 °F 30.11 in Calm     12% 0.00 in 0.0 W/m2 CLR
16:44 70.0 °F 15.0 °F 30.11 in Calm     12% 0.00 in 0.0 W/m2 CLR
16:49 70.0 °F 15.0 °F 30.11 in Calm     12% 0.00 in 0.0 W/m2 CLR
16:54 70.0 °F 15.0 °F 30.11 in Calm     12% 0.00 in 0.0 W/m2 CLR
16:59 70.0 °F 15.0 °F 30.11 in Calm     12% 0.00 in 0.0 W/m2 CLR
17:04 68.0 °F 15.3 °F 30.11 in Calm     13% 0.00 in 0.0 W/m2 CLR
17:09 68.0 °F 15.3 °F 30.11 in Calm     13% 0.00 in 0.0 W/m2 CLR
17:14 68.0 °F 15.3 °F 30.11 in Calm     13% 0.00 in 0.0 W/m2 CLR
17:19 68.0 °F 15.3 °F 30.11 in Calm     13% 0.00 in 0.0 W/m2 CLR
17:24 68.0 °F 15.3 °F 30.11 in Calm     13% 0.00 in 0.0 W/m2 CLR
17:29 68.0 °F 15.3 °F 30.11 in Calm     13% 0.00 in 0.0 W/m2 CLR
17:34 68.0 °F 15.3 °F 30.11 in Calm     13% 0.00 in 0.0 W/m2 CLR
17:39 68.0 °F 15.3 °F 30.11 in Calm     13% 0.00 in 0.0 W/m2 CLR
17:44 68.0 °F 15.3 °F 30.11 in Calm     13% 0.00 in 0.0 W/m2 CLR
17:49 68.0 °F 15.3 °F 30.11 in Calm     13% 0.00 in 0.0 W/m2 CLR
17:54 68.0 °F 15.3 °F 30.11 in Calm     13% 0.00 in 0.0 W/m2 CLR
17:59 68.0 °F 15.3 °F 30.11 in Calm     13% 0.00 in 0.0 W/m2 CLR
18:04 64.9 °F 34.3 °F 30.14 in Calm     32% 0.00 in 0.0 W/m2 CLR
18:09 64.9 °F 34.3 °F 30.14 in Calm     32% 0.00 in 0.0 W/m2 CLR
18:14 64.9 °F 34.3 °F 30.14 in Calm     32% 0.00 in 0.0 W/m2 CLR
18:19 64.9 °F 34.3 °F 30.14 in Calm     32% 0.00 in 0.0 W/m2 CLR
18:24 64.9 °F 34.3 °F 30.14 in Calm     32% 0.00 in 0.0 W/m2 CLR
18:29 64.9 °F 34.3 °F 30.14 in Calm     32% 0.00 in 0.0 W/m2 CLR
18:34 64.9 °F 34.3 °F 30.14 in Calm     32% 0.00 in 0.0 W/m2 CLR
18:39 64.9 °F 34.3 °F 30.14 in Calm     32% 0.00 in 0.0 W/m2 CLR
18:44 64.9 °F 34.3 °F 30.14 in Calm     32% 0.00 in 0.0 W/m2 CLR
18:49 64.9 °F 34.3 °F 30.14 in Calm     32% 0.00 in 0.0 W/m2 CLR
18:54 64.9 °F 34.3 °F 30.14 in Calm     32% 0.00 in 0.0 W/m2 CLR
18:59 64.9 °F 34.3 °F 30.14 in Calm     32% 0.00 in 0.0 W/m2 CLR
19:04 60.1 °F 36.9 °F 30.15 in Calm     42% 0.00 in 0.0 W/m2 CLR
19:09 60.1 °F 36.9 °F 30.15 in Calm     42% 0.00 in 0.0 W/m2 CLR
19:14 60.1 °F 36.9 °F 30.15 in Calm     42% 0.00 in 0.0 W/m2 CLR
19:19 60.1 °F 36.9 °F 30.15 in Calm     42% 0.00 in 0.0 W/m2 CLR
19:24 60.1 °F 36.9 °F 30.15 in Calm     42% 0.00 in 0.0 W/m2 CLR
19:29 60.1 °F 36.9 °F 30.15 in Calm     42% 0.00 in 0.0 W/m2 CLR
19:34 60.1 °F 36.9 °F 30.15 in Calm     42% 0.00 in 0.0 W/m2 CLR
19:39 60.1 °F 36.9 °F 30.15 in Calm     42% 0.00 in 0.0 W/m2 CLR
19:44 60.1 °F 36.9 °F 30.15 in Calm     42% 0.00 in 0.0 W/m2 CLR
19:49 60.1 °F 36.9 °F 30.15 in Calm     42% 0.00 in 0.0 W/m2 CLR
19:54 60.1 °F 36.9 °F 30.15 in Calm     42% 0.00 in 0.0 W/m2 CLR
19:59 60.1 °F 36.9 °F 30.15 in Calm     42% 0.00 in 0.0 W/m2 CLR
20:04 57.0 °F 38.5 °F 30.15 in Calm     50% 0.00 in 0.0 W/m2 CLR
20:09 57.0 °F 38.5 °F 30.15 in Calm     50% 0.00 in 0.0 W/m2 CLR
20:14 57.0 °F 38.5 °F 30.15 in Calm     50% 0.00 in 0.0 W/m2 CLR
20:19 57.0 °F 38.5 °F 30.15 in Calm     50% 0.00 in 0.0 W/m2 CLR
20:24 57.0 °F 38.5 °F 30.15 in Calm     50% 0.00 in 0.0 W/m2 CLR
20:29 57.0 °F 38.5 °F 30.15 in Calm     50% 0.00 in 0.0 W/m2 CLR
20:34 57.0 °F 38.5 °F 30.15 in Calm     50% 0.00 in 0.0 W/m2 CLR
20:39 57.0 °F 38.5 °F 30.15 in Calm     50% 0.00 in 0.0 W/m2 CLR
20:44 57.0 °F 38.5 °F 30.15 in Calm     50% 0.00 in 0.0 W/m2 CLR
20:49 57.0 °F 38.5 °F 30.15 in Calm     50% 0.00 in 0.0 W/m2 CLR
20:54 57.0 °F 38.5 °F 30.15 in Calm     50% 0.00 in 0.0 W/m2 CLR
20:55 57.0 °F 38.5 °F 30.15 in Calm     50% 0.00 in 0.0 W/m2 CLR
21:00 57.0 °F 38.5 °F 30.15 in Calm     50% 0.00 in 0.0 W/m2 CLR
21:05 54.0 °F 38.6 °F 30.16 in Calm     56% 0.00 in 0.0 W/m2 CLR
21:10 54.0 °F 38.6 °F 30.16 in Calm     56% 0.00 in 0.0 W/m2 CLR
21:15 54.0 °F 38.6 °F 30.16 in Calm     56% 0.00 in 0.0 W/m2 CLR
21:20 54.0 °F 38.6 °F 30.16 in Calm     56% 0.00 in 0.0 W/m2 CLR
21:25 54.0 °F 38.6 °F 30.16 in Calm     56% 0.00 in 0.0 W/m2 CLR
21:30 54.0 °F 38.6 °F 30.16 in Calm     56% 0.00 in 0.0 W/m2 CLR
21:35 54.0 °F 38.6 °F 30.16 in Calm     56% 0.00 in 0.0 W/m2 CLR
21:40 54.0 °F 38.6 °F 30.16 in Calm     56% 0.00 in 0.0 W/m2 CLR
21:45 54.0 °F 38.6 °F 30.16 in Calm     56% 0.00 in 0.0 W/m2 CLR
21:50 54.0 °F 38.6 °F 30.16 in Calm     56% 0.00 in 0.0 W/m2 CLR
21:55 54.0 °F 38.6 °F 30.16 in Calm     56% 0.00 in 0.0 W/m2 CLR
22:00 54.0 °F 38.6 °F 30.16 in Calm     56% 0.00 in 0.0 W/m2 CLR
22:05 51.1 °F 39.7 °F 30.16 in Calm     65% 0.00 in 0.0 W/m2 CLR
22:10 51.1 °F 39.7 °F 30.16 in Calm     65% 0.00 in 0.0 W/m2 CLR
22:15 51.1 °F 39.7 °F 30.16 in Calm     65% 0.00 in 0.0 W/m2 CLR
22:20 51.1 °F 39.7 °F 30.16 in Calm     65% 0.00 in 0.0 W/m2 CLR
22:25 51.1 °F 39.7 °F 30.16 in Calm     65% 0.00 in 0.0 W/m2 CLR
22:30 51.1 °F 39.7 °F 30.16 in Calm     65% 0.00 in 0.0 W/m2 CLR
22:35 51.1 °F 39.7 °F 30.16 in Calm     65% 0.00 in 0.0 W/m2 CLR
22:40 51.1 °F 39.7 °F 30.16 in Calm     65% 0.00 in 0.0 W/m2 CLR
22:45 51.1 °F 39.7 °F 30.16 in Calm     65% 0.00 in 0.0 W/m2 CLR
22:50 51.1 °F 39.7 °F 30.16 in Calm     65% 0.00 in 0.0 W/m2 CLR
22:55 51.1 °F 39.7 °F 30.16 in Calm     65% 0.00 in 0.0 W/m2 CLR
23:00 51.1 °F 39.7 °F 30.16 in Calm     65% 0.00 in 0.0 W/m2 CLR
23:05 50.0 °F 39.8 °F 30.16 in Calm     68% 0.00 in 0.0 W/m2 CLR
23:10 50.0 °F 39.8 °F 30.16 in Calm     68% 0.00 in 0.0 W/m2 CLR
23:15 50.0 °F 39.8 °F 30.16 in Calm     68% 0.00 in 0.0 W/m2 CLR
23:20 50.0 °F 39.8 °F 30.16 in Calm     68% 0.00 in 0.0 W/m2 CLR
23:25 50.0 °F 39.8 °F 30.16 in Calm     68% 0.00 in 0.0 W/m2 CLR
23:30 50.0 °F 39.8 °F 30.16 in Calm     68% 0.00 in 0.0 W/m2 CLR
23:35 50.0 °F 39.8 °F 30.16 in Calm     68% 0.00 in 0.0 W/m2 CLR
23:40 50.0 °F 39.8 °F 30.16 in Calm     68% 0.00 in 0.0 W/m2 CLR
23:45 50.0 °F 39.8 °F 30.16 in Calm     68% 0.00 in 0.0 W/m2 CLR
23:50 50.0 °F 39.8 °F 30.16 in Calm     68% 0.00 in 0.0 W/m2 CLR
23:55 50.0 °F 39.8 °F 30.16 in Calm     68% 0.00 in 0.0 W/m2 CLR
Lake Mary, FL, USA
Compliments of Weather Underground - 1.75 mb